Aqua Mar — WDD9333 — position and weather

sailwx.info

Track history (hours):
 
Tides and Currents Weather Stations Pressure Air Temp Water Temp Dewpoint Dewpoint Depression Visibility Wind Speed Wind Dir Waves Ship Positions

Aqua Mar

Owner: Schonlaw, Ted, Los Angeles, CA. More information available from US FCC via Universal Licensing System and Coast Guard Vessel Documentation Center.

Last reported at 2018-Jun-13 23:39 UTC. Time now 2018-Jun-22 15:22 UTC.
Position N 33°35' W 117°54'.
Warning: this ship's position is 8 days out of date.

Length 12 m.

Type: Pleasure craft. MMSI: 367309970.

Date/timePositionNaut miles runAvg speedWind from/ knotsBaromVisibWave heightAir tempDewpointWater temp
2018-Jun-13 23:39N 33°35' W 117°54'320.9
2018-Jun-13 23:29N 33°33' W 117°58'28 8.0
2018-Jun-13 19:56N 33°19' W 118°28'4 0.2
2018-Jun-12 23:20N 33°23' W 118°30'7 0.6
2018-Jun-12 12:52N 33°29' W 118°33'0 0.1
2018-Jun-12 12:26N 33°29' W 118°33'1 0.6
2018-Jun-12 10:16N 33°28' W 118°32'0 0.0
2018-Jun-12 09:46N 33°28' W 118°32'0 0.0
2018-Jun-12 05:52N 33°28' W 118°32'0 0.0
2018-Jun-12 05:28N 33°28' W 118°32'0 0.0
2018-Jun-12 04:52N 33°28' W 118°32'0 0.0
2018-Jun-12 04:19N 33°28' W 118°32'3 8.2
2018-Jun-12 03:56N 33°30' W 118°29'816.5
2018-Jun-12 03:28N 33°35' W 118°22'816.9
2018-Jun-12 03:00N 33°40' W 118°15'612.3
2018-Jun-12 02:30N 33°44' W 118°08'4 8.2
2018-Jun-12 02:00N 33°41' W 118°04'816.7
2018-Jun-12 01:30N 33°36' W 117°56'  
Track history (hours):
 
Tides and Currents Weather Stations Pressure Air Temp Water Temp Dewpoint Dewpoint Depression Visibility Wind Speed Wind Dir Waves Ship Positions

Aqua Mar

Owner: Schonlaw, Ted, Los Angeles, CA. More information available from US FCC via Universal Licensing System and Coast Guard Vessel Documentation Center.

Last reported at 2018-Jun-13 23:39 UTC. Time now 2018-Jun-22 15:22 UTC.
Position N 33°35' W 117°54'.
Warning: this ship's position is 8 days out of date.

Length 12 m.

Type: Pleasure craft. MMSI: 367309970.

Date/timePositionNaut miles runAvg speedWind from/ knotsBaromVisibWave heightAir tempDewpointWater temp
2018-Jun-13 23:39N 33°35' W 117°54'320.9
2018-Jun-13 23:29N 33°33' W 117°58'28 8.0
2018-Jun-13 19:56N 33°19' W 118°28'4 0.2
2018-Jun-12 23:20N 33°23' W 118°30'7 0.6
2018-Jun-12 12:52N 33°29' W 118°33'0 0.1
2018-Jun-12 12:26N 33°29' W 118°33'1 0.6
2018-Jun-12 10:16N 33°28' W 118°32'0 0.0
2018-Jun-12 09:46N 33°28' W 118°32'0 0.0
2018-Jun-12 05:52N 33°28' W 118°32'0 0.0
2018-Jun-12 05:28N 33°28' W 118°32'0 0.0
2018-Jun-12 04:52N 33°28' W 118°32'0 0.0
2018-Jun-12 04:19N 33°28' W 118°32'3 8.2
2018-Jun-12 03:56N 33°30' W 118°29'816.5
2018-Jun-12 03:28N 33°35' W 118°22'816.9
2018-Jun-12 03:00N 33°40' W 118°15'612.3
2018-Jun-12 02:30N 33°44' W 118°08'4 8.2
2018-Jun-12 02:00N 33°41' W 118°04'816.7
2018-Jun-12 01:30N 33°36' W 117°56'  

Dump ship's entire track history